Thunder radar more information blitzortung!


Radar de pluja more information rain snow radar


Visita la nostra xarxa de llocs de meteo:

Template documentation
and downloads

And another site



No particular awareness of the weather is required.    There are no Weather-warnings

Pagina Historial Weather Underground text

Diari Resum Octubre 15, 2017 Unitats:  Tant    Imperial   Mètric
« Previous Dia
SegĂźent Dia »
Diari Setmana Mensual Anual Personalitzada
  Maxima: Minima: Media:
Temperatura: 79.5 °F /  26.4 °C 58.3 °F /  14.6 °C 66.7 °F /  19.3 °C
Punt de rosada: 64.2 °F /  17.9 °C 55.4 °F /  13.0 °C 58.6 °F /  14.8 °C
Humitat: 92 % 52 % 76 %
Wind Speed: 9.2 mph /  14.8 km/h - 2.1 mph /  3.3 km/h
RĂ fegues de vent: 9.2 mph /  14.8 km/h - -
Vent:- - SSE
Pression baro: 30.4 in /  1029.0 hPa 30.3 in /  1026.0 hPa -
Precipitacions: 0 in /  0.0 mm    
Historical Graphs
 
 
Dades de taula per Octubre 15, 2017
Temps Temperatura Punt de rosada Pression baro Vent Wind Speed RĂ fegues de vent Humitat Rainfall Rate (Hourly)
00:00 63.9 °F /  17.7 °C 58.3 °F /  14.6 °C 30.4 in /  1028.0 hPa Calm     82 % 0 in /  0.0 mm
00:05 63.7 °F /  17.6 °C 58.5 °F /  14.7 °C 30.4 in /  1028.0 hPa Calm     83 % 0 in /  0.0 mm
00:10 63.5 °F /  17.5 °C 58.3 °F /  14.6 °C 30.4 in /  1028.0 hPa Calm     83 % 0 in /  0.0 mm
00:15 63.7 °F /  17.6 °C 58.5 °F /  14.7 °C 30.4 in /  1028.0 hPa Calm     83 % 0 in /  0.0 mm
00:20 63.5 °F /  17.5 °C 58.3 °F /  14.6 °C 30.4 in /  1028.0 hPa Calm     83 % 0 in /  0.0 mm
00:25 63.3 °F /  17.4 °C 58.1 °F /  14.5 °C 30.4 in /  1028.0 hPa Calm     83 % 0 in /  0.0 mm
00:30 63.3 °F /  17.4 °C 58.5 °F /  14.7 °C 30.4 in /  1028.0 hPa Calm     84 % 0 in /  0.0 mm
00:31 63.3 °F /  17.4 °C 58.5 °F /  14.7 °C 30.4 in /  1028.0 hPa Calm     84 % 0 in /  0.0 mm
00:36 63.3 °F /  17.4 °C 58.5 °F /  14.7 °C 30.4 in /  1028.0 hPa Calm     84 % 0 in /  0.0 mm
00:41 63.1 °F /  17.3 °C 58.3 °F /  14.6 °C 30.4 in /  1028.0 hPa Calm     84 % 0 in /  0.0 mm
00:46 63.1 °F /  17.3 °C 58.3 °F /  14.6 °C 30.4 in /  1028.0 hPa Calm     84 % 0 in /  0.0 mm
00:51 63 °F /  17.2 °C 57.9 °F /  14.4 °C 30.4 in /  1028.0 hPa Calm     84 % 0 in /  0.0 mm
00:56 63 °F /  17.2 °C 58.5 °F /  14.7 °C 30.4 in /  1028.0 hPa Calm     85 % 0 in /  0.0 mm
01:01 63 °F /  17.2 °C 58.5 °F /  14.7 °C 30.4 in /  1028.0 hPa Calm     85 % 0 in /  0.0 mm
01:06 62.8 °F /  17.1 °C 58.3 °F /  14.6 °C 30.4 in /  1028.0 hPa Calm     85 % 0 in /  0.0 mm
01:11 62.8 °F /  17.1 °C 58.3 °F /  14.6 °C 30.4 in /  1028.0 hPa Calm     85 % 0 in /  0.0 mm
01:12 62.6 °F /  17.0 °C 57.9 °F /  14.4 °C 30.4 in /  1028.0 hPa Calm     85 % 0 in /  0.0 mm
01:17 62.6 °F /  17.0 °C 57.9 °F /  14.4 °C 30.4 in /  1028.0 hPa Calm     85 % 0 in /  0.0 mm
01:22 62.4 °F /  16.9 °C 57.7 °F /  14.3 °C 30.4 in /  1028.0 hPa Calm     85 % 0 in /  0.0 mm
01:27 62.1 °F /  16.7 °C 57.6 °F /  14.2 °C 30.4 in /  1028.0 hPa North 1.4 mph /  2.3 km/h 1.4 mph /  2.3 km/h 85 % 0 in /  0.0 mm
01:32 62.1 °F /  16.7 °C 57.6 °F /  14.2 °C 30.4 in /  1028.0 hPa WNW 2.3 mph /  3.7 km/h 2.3 mph /  3.7 km/h 85 % 0 in /  0.0 mm
01:37 62.2 °F /  16.8 °C 57.9 °F /  14.4 °C 30.4 in /  1028.0 hPa WNW 1.2 mph /  1.9 km/h   86 % 0 in /  0.0 mm
01:42 62.1 °F /  16.7 °C 57.7 °F /  14.3 °C 30.4 in /  1028.0 hPa WNW 1.2 mph /  1.9 km/h 1.2 mph /  1.9 km/h 86 % 0 in /  0.0 mm
01:47 62.1 °F /  16.7 °C 57.7 °F /  14.3 °C 30.4 in /  1028.0 hPa WNW 1.2 mph /  1.9 km/h 1.2 mph /  1.9 km/h 86 % 0 in /  0.0 mm
01:52 62.1 °F /  16.7 °C 57.7 °F /  14.3 °C 30.4 in /  1028.0 hPa WNW 1.2 mph /  1.9 km/h 1.2 mph /  1.9 km/h 86 % 0 in /  0.0 mm
01:57 62.1 °F /  16.7 °C 58.1 °F /  14.5 °C 30.3 in /  1027.0 hPa Calm     87 % 0 in /  0.0 mm
02:02 61.9 °F /  16.6 °C 57.9 °F /  14.4 °C 30.3 in /  1027.0 hPa Calm     87 % 0 in /  0.0 mm
02:07 61.9 °F /  16.6 °C 57.9 °F /  14.4 °C 30.3 in /  1027.0 hPa Calm     87 % 0 in /  0.0 mm
02:12 61.7 °F /  16.5 °C 57.7 °F /  14.3 °C 30.4 in /  1028.0 hPa Calm     87 % 0 in /  0.0 mm
02:17 61.7 °F /  16.5 °C 57.7 °F /  14.3 °C 30.4 in /  1028.0 hPa Calm     87 % 0 in /  0.0 mm
02:22 61.5 °F /  16.4 °C 57.6 °F /  14.2 °C 30.4 in /  1028.0 hPa North 1.4 mph /  2.3 km/h 1.4 mph /  2.3 km/h 87 % 0 in /  0.0 mm
02:27 61.3 °F /  16.3 °C 57.4 °F /  14.1 °C 30.4 in /  1028.0 hPa NNE 2.3 mph /  3.7 km/h 2.3 mph /  3.7 km/h 87 % 0 in /  0.0 mm
02:32 61.3 °F /  16.3 °C 57.4 °F /  14.1 °C 30.4 in /  1028.0 hPa Calm     87 % 0 in /  0.0 mm
02:37 61.3 °F /  16.3 °C 57.7 °F /  14.3 °C 30.4 in /  1028.0 hPa Calm     88 % 0 in /  0.0 mm
02:42 61.2 °F /  16.2 °C 57.6 °F /  14.2 °C 30.4 in /  1028.0 hPa Calm     88 % 0 in /  0.0 mm
02:47 61.2 °F /  16.2 °C 57.6 °F /  14.2 °C 30.4 in /  1028.0 hPa Calm     88 % 0 in /  0.0 mm
02:52 60.6 °F /  15.9 °C 56.7 °F /  13.7 °C 30.4 in /  1028.0 hPa Calm     87 % 0 in /  0.0 mm
02:57 60.4 °F /  15.8 °C 56.7 °F /  13.7 °C 30.4 in /  1028.0 hPa Calm     87 % 0 in /  0.0 mm
03:02 60.3 °F /  15.7 °C 56.7 °F /  13.7 °C 30.4 in /  1028.0 hPa Calm     88 % 0 in /  0.0 mm
03:07 60.3 °F /  15.7 °C 56.7 °F /  13.7 °C 30.4 in /  1028.0 hPa Calm     88 % 0 in /  0.0 mm
03:12 60.1 °F /  15.6 °C 56.5 °F /  13.6 °C 30.4 in /  1028.0 hPa Calm     88 % 0 in /  0.0 mm
03:17 60.1 °F /  15.6 °C 56.5 °F /  13.6 °C 30.4 in /  1028.0 hPa Calm     88 % 0 in /  0.0 mm
03:22 59.9 °F /  15.5 °C 56.3 °F /  13.5 °C 30.4 in /  1028.0 hPa Calm     88 % 0 in /  0.0 mm
03:27 59.9 °F /  15.5 °C 56.3 °F /  13.5 °C 30.4 in /  1028.0 hPa Calm     88 % 0 in /  0.0 mm
03:32 59.7 °F /  15.4 °C 56.1 °F /  13.4 °C 30.4 in /  1028.0 hPa Calm     88 % 0 in /  0.0 mm
03:37 59.7 °F /  15.4 °C 56.1 °F /  13.4 °C 30.4 in /  1028.0 hPa Calm     88 % 0 in /  0.0 mm
03:42 59.7 °F /  15.4 °C 56.5 °F /  13.6 °C 30.4 in /  1028.0 hPa Calm     89 % 0 in /  0.0 mm
03:47 59.7 °F /  15.4 °C 56.5 °F /  13.6 °C 30.4 in /  1028.0 hPa Calm     89 % 0 in /  0.0 mm
03:52 59.7 °F /  15.4 °C 56.5 °F /  13.6 °C 30.4 in /  1028.0 hPa Calm     89 % 0 in /  0.0 mm
03:57 59.7 °F /  15.4 °C 56.5 °F /  13.6 °C 30.4 in /  1028.0 hPa Calm     89 % 0 in /  0.0 mm
04:02 59.9 °F /  15.5 °C 56.7 °F /  13.7 °C 30.4 in /  1028.0 hPa Calm     89 % 0 in /  0.0 mm
04:07 59.9 °F /  15.5 °C 56.7 °F /  13.7 °C 30.4 in /  1028.0 hPa Calm     89 % 0 in /  0.0 mm
04:12 59.9 °F /  15.5 °C 56.7 °F /  13.7 °C 30.4 in /  1028.0 hPa ENE 1.2 mph /  1.9 km/h 1.2 mph /  1.9 km/h 89 % 0 in /  0.0 mm
04:17 59.9 °F /  15.5 °C 56.7 °F /  13.7 °C 30.4 in /  1028.0 hPa NNE 2.3 mph /  3.7 km/h 2.3 mph /  3.7 km/h 89 % 0 in /  0.0 mm
04:22 60.1 °F /  15.6 °C 56.8 °F /  13.8 °C 30.4 in /  1028.0 hPa ENE 1.2 mph /  1.9 km/h 1.2 mph /  1.9 km/h 89 % 0 in /  0.0 mm
04:27 60.1 °F /  15.6 °C 56.5 °F /  13.6 °C 30.3 in /  1027.0 hPa ENE 2.3 mph /  3.7 km/h 2.3 mph /  3.7 km/h 88 % 0 in /  0.0 mm
04:32 60.1 °F /  15.6 °C 56.5 °F /  13.6 °C 30.3 in /  1027.0 hPa North 1.2 mph /  1.9 km/h 1.2 mph /  1.9 km/h 88 % 0 in /  0.0 mm
04:37 60.3 °F /  15.7 °C 56.7 °F /  13.7 °C 30.3 in /  1027.0 hPa NNE 2.3 mph /  3.7 km/h 2.3 mph /  3.7 km/h 88 % 0 in /  0.0 mm
04:42 60.3 °F /  15.7 °C 56.7 °F /  13.7 °C 30.4 in /  1028.0 hPa NNE 3.5 mph /  5.6 km/h 3.5 mph /  5.6 km/h 88 % 0 in /  0.0 mm
04:47 60.3 °F /  15.7 °C 56.7 °F /  13.7 °C 30.4 in /  1028.0 hPa Calm     88 % 0 in /  0.0 mm
04:52 60.1 °F /  15.6 °C 56.5 °F /  13.6 °C 30.4 in /  1028.0 hPa Calm     88 % 0 in /  0.0 mm
04:57 60.1 °F /  15.6 °C 56.5 °F /  13.6 °C 30.3 in /  1027.0 hPa NNW 1.2 mph /  1.9 km/h 1.2 mph /  1.9 km/h 88 % 0 in /  0.0 mm
05:02 60.1 °F /  15.6 °C 56.5 °F /  13.6 °C 30.3 in /  1027.0 hPa Calm     88 % 0 in /  0.0 mm
05:07 60.1 °F /  15.6 °C 56.5 °F /  13.6 °C 30.3 in /  1027.0 hPa Calm     88 % 0 in /  0.0 mm
05:12 59.9 °F /  15.5 °C 56.3 °F /  13.5 °C 30.3 in /  1027.0 hPa West 1.2 mph /  1.9 km/h 1.2 mph /  1.9 km/h 88 % 0 in /  0.0 mm
05:17 59.9 °F /  15.5 °C 56.3 °F /  13.5 °C 30.3 in /  1027.0 hPa West 1.2 mph /  1.9 km/h 1.2 mph /  1.9 km/h 88 % 0 in /  0.0 mm
05:22 59.9 °F /  15.5 °C 56.3 °F /  13.5 °C 30.3 in /  1027.0 hPa Calm     88 % 0 in /  0.0 mm
05:27 59.9 °F /  15.5 °C 56.3 °F /  13.5 °C 30.4 in /  1028.0 hPa Calm     88 % 0 in /  0.0 mm
05:32 59.9 °F /  15.5 °C 56.3 °F /  13.5 °C 30.4 in /  1028.0 hPa Calm     88 % 0 in /  0.0 mm
05:37 59.9 °F /  15.5 °C 56.3 °F /  13.5 °C 30.4 in /  1028.0 hPa Calm     88 % 0 in /  0.0 mm
05:42 59.9 °F /  15.5 °C 56.3 °F /  13.5 °C 30.4 in /  1028.0 hPa SW 2.3 mph /  3.7 km/h 2.3 mph /  3.7 km/h 88 % 0 in /  0.0 mm
05:47 59.9 °F /  15.5 °C 56.3 °F /  13.5 °C 30.4 in /  1028.0 hPa Calm     88 % 0 in /  0.0 mm
05:52 59.7 °F /  15.4 °C 56.5 °F /  13.6 °C 30.4 in /  1028.0 hPa Calm     89 % 0 in /  0.0 mm
05:57 59.7 °F /  15.4 °C 56.1 °F /  13.4 °C 30.4 in /  1028.0 hPa Calm     88 % 0 in /  0.0 mm
06:02 59.5 °F /  15.3 °C 56.3 °F /  13.5 °C 30.4 in /  1028.0 hPa Calm     89 % 0 in /  0.0 mm
06:07 59.5 °F /  15.3 °C 56.3 °F /  13.5 °C 30.4 in /  1028.0 hPa Calm     89 % 0 in /  0.0 mm
06:12 59.5 °F /  15.3 °C 56.3 °F /  13.5 °C 30.4 in /  1028.0 hPa Calm     89 % 0 in /  0.0 mm
06:17 59.5 °F /  15.3 °C 56.3 °F /  13.5 °C 30.4 in /  1028.0 hPa Calm     89 % 0 in /  0.0 mm
06:22 59.5 °F /  15.3 °C 56.3 °F /  13.5 °C 30.4 in /  1028.0 hPa Calm     89 % 0 in /  0.0 mm
06:27 59.5 °F /  15.3 °C 56.3 °F /  13.5 °C 30.4 in /  1028.0 hPa Calm     89 % 0 in /  0.0 mm
06:32 59.5 °F /  15.3 °C 56.3 °F /  13.5 °C 30.4 in /  1028.0 hPa Calm     89 % 0 in /  0.0 mm
06:37 59.5 °F /  15.3 °C 56.3 °F /  13.5 °C 30.4 in /  1028.0 hPa SSE 1.4 mph /  2.3 km/h   89 % 0 in /  0.0 mm
06:42 59 °F /  15.0 °C 55.8 °F /  13.2 °C 30.4 in /  1028.0 hPa South 1.2 mph /  1.9 km/h   89 % 0 in /  0.0 mm
06:47 59 °F /  15.0 °C 55.8 °F /  13.2 °C 30.4 in /  1028.0 hPa Calm     89 % 0 in /  0.0 mm
06:52 58.8 °F /  14.9 °C 55.6 °F /  13.1 °C 30.4 in /  1028.0 hPa South 1.2 mph /  1.9 km/h 1.2 mph /  1.9 km/h 89 % 0 in /  0.0 mm
06:57 59 °F /  15.0 °C 55.8 °F /  13.2 °C 30.4 in /  1028.0 hPa Calm     89 % 0 in /  0.0 mm
07:02 59 °F /  15.0 °C 55.8 °F /  13.2 °C 30.4 in /  1028.0 hPa Calm     89 % 0 in /  0.0 mm
07:03 59 °F /  15.0 °C 55.8 °F /  13.2 °C 30.4 in /  1028.0 hPa Calm     89 % 0 in /  0.0 mm
07:08 58.8 °F /  14.9 °C 55.6 °F /  13.1 °C 30.4 in /  1028.0 hPa South 1.4 mph /  2.3 km/h 1.4 mph /  2.3 km/h 89 % 0 in /  0.0 mm
07:13 59 °F /  15.0 °C 55.8 °F /  13.2 °C 30.4 in /  1028.0 hPa South 2.3 mph /  3.7 km/h 2.3 mph /  3.7 km/h 89 % 0 in /  0.0 mm
07:18 58.8 °F /  14.9 °C 55.6 °F /  13.1 °C 30.4 in /  1028.0 hPa SSW 2.3 mph /  3.7 km/h 2.3 mph /  3.7 km/h 89 % 0 in /  0.0 mm
07:23 58.8 °F /  14.9 °C 55.6 °F /  13.1 °C 30.4 in /  1028.0 hPa SW 2.3 mph /  3.7 km/h 2.3 mph /  3.7 km/h 89 % 0 in /  0.0 mm
07:28 59 °F /  15.0 °C 56.1 °F /  13.4 °C 30.4 in /  1028.0 hPa WSW 2.3 mph /  3.7 km/h   90 % 0 in /  0.0 mm
07:33 59 °F /  15.0 °C 56.1 °F /  13.4 °C 30.4 in /  1028.0 hPa Calm     90 % 0 in /  0.0 mm
07:38 59 °F /  15.0 °C 56.1 °F /  13.4 °C 30.4 in /  1028.0 hPa WSW 1.2 mph /  1.9 km/h   90 % 0 in /  0.0 mm
07:40 59 °F /  15.0 °C 56.1 °F /  13.4 °C 30.4 in /  1028.0 hPa WSW 1.2 mph /  1.9 km/h   90 % 0 in /  0.0 mm
07:45 59 °F /  15.0 °C 56.1 °F /  13.4 °C 30.4 in /  1028.0 hPa Calm     90 % 0 in /  0.0 mm
07:50 58.8 °F /  14.9 °C 56.1 °F /  13.4 °C 30.4 in /  1028.0 hPa Calm     91 % 0 in /  0.0 mm
07:55 58.6 °F /  14.8 °C 55.8 °F /  13.2 °C 30.4 in /  1028.0 hPa Calm     90 % 0 in /  0.0 mm
08:00 58.5 °F /  14.7 °C 55.6 °F /  13.1 °C 30.3 in /  1027.0 hPa Calm     90 % 0 in /  0.0 mm
08:05 58.5 °F /  14.7 °C 55.6 °F /  13.1 °C 30.3 in /  1027.0 hPa Calm     90 % 0 in /  0.0 mm
08:10 58.5 °F /  14.7 °C 55.6 °F /  13.1 °C 30.3 in /  1027.0 hPa Calm     90 % 0 in /  0.0 mm
08:15 58.3 °F /  14.6 °C 55.4 °F /  13.0 °C 30.4 in /  1028.0 hPa Calm     90 % 0 in /  0.0 mm
08:20 58.3 °F /  14.6 °C 55.8 °F /  13.2 °C 30.4 in /  1028.0 hPa Calm     91 % 0 in /  0.0 mm
08:25 58.3 °F /  14.6 °C 55.8 °F /  13.2 °C 30.4 in /  1028.0 hPa Calm     91 % 0 in /  0.0 mm
08:30 58.5 °F /  14.7 °C 55.8 °F /  13.2 °C 30.4 in /  1028.0 hPa Calm     91 % 0 in /  0.0 mm
08:35 58.8 °F /  14.9 °C 56.1 °F /  13.4 °C 30.4 in /  1028.0 hPa Calm     91 % 0 in /  0.0 mm
08:40 59.2 °F /  15.1 °C 56.8 °F /  13.8 °C 30.4 in /  1028.0 hPa Calm     92 % 0 in /  0.0 mm
08:45 59.4 °F /  15.2 °C 56.7 °F /  13.7 °C 30.4 in /  1028.0 hPa NNE 2.3 mph /  3.7 km/h 2.3 mph /  3.7 km/h 91 % 0 in /  0.0 mm
08:50 59.7 °F /  15.4 °C 57 °F /  13.9 °C 30.4 in /  1028.0 hPa NW 2.6 mph /  4.2 km/h 2.6 mph /  4.2 km/h 91 % 0 in /  0.0 mm
08:55 60.4 °F /  15.8 °C 57.7 °F /  14.3 °C 30.4 in /  1028.0 hPa NNW 1.2 mph /  1.9 km/h 1.2 mph /  1.9 km/h 91 % 0 in /  0.0 mm
09:00 61 °F /  16.1 °C 57.9 °F /  14.4 °C 30.3 in /  1027.0 hPa NNW 2.3 mph /  3.7 km/h 2.3 mph /  3.7 km/h 90 % 0 in /  0.0 mm
09:05 61 °F /  16.1 °C 57.9 °F /  14.4 °C 30.3 in /  1027.0 hPa South 2.3 mph /  3.7 km/h 2.3 mph /  3.7 km/h 90 % 0 in /  0.0 mm
09:10 61 °F /  16.1 °C 57.9 °F /  14.4 °C 30.3 in /  1027.0 hPa Calm     90 % 0 in /  0.0 mm
09:15 61.3 °F /  16.3 °C 58.1 °F /  14.5 °C 30.4 in /  1028.0 hPa NE 2.3 mph /  3.7 km/h   89 % 0 in /  0.0 mm
09:20 61.5 °F /  16.4 °C 58.3 °F /  14.6 °C 30.4 in /  1028.0 hPa North 2.6 mph /  4.2 km/h 2.6 mph /  4.2 km/h 89 % 0 in /  0.0 mm
09:25 61.5 °F /  16.4 °C 57.9 °F /  14.4 °C 30.4 in /  1028.0 hPa ENE 3.1 mph /  5.0 km/h 3.1 mph /  5.0 km/h 88 % 0 in /  0.0 mm
09:30 61.5 °F /  16.4 °C 57.9 °F /  14.4 °C 30.4 in /  1028.0 hPa WSW 1.2 mph /  1.9 km/h   88 % 0 in /  0.0 mm
09:35 62.1 °F /  16.7 °C 58.5 °F /  14.7 °C 30.4 in /  1028.0 hPa West 1.2 mph /  1.9 km/h 1.2 mph /  1.9 km/h 88 % 0 in /  0.0 mm
09:40 62.6 °F /  17.0 °C 58.6 °F /  14.8 °C 30.4 in /  1028.0 hPa WNW 1.2 mph /  1.9 km/h 1.2 mph /  1.9 km/h 87 % 0 in /  0.0 mm
09:45 63.7 °F /  17.6 °C 59.7 °F /  15.4 °C 30.4 in /  1029.0 hPa NW 2.3 mph /  3.7 km/h 2.3 mph /  3.7 km/h 87 % 0 in /  0.0 mm
09:50 64.4 °F /  18.0 °C 59.7 °F /  15.4 °C 30.4 in /  1029.0 hPa NW 2.4 mph /  3.9 km/h 2.4 mph /  3.9 km/h 85 % 0 in /  0.0 mm
09:55 65.1 °F /  18.4 °C 60.3 °F /  15.7 °C 30.4 in /  1029.0 hPa NNE 3.5 mph /  5.6 km/h 3.5 mph /  5.6 km/h 84 % 0 in /  0.0 mm
10:00 65.7 °F /  18.7 °C 60.4 °F /  15.8 °C 30.4 in /  1028.0 hPa ENE 1.2 mph /  1.9 km/h 1.2 mph /  1.9 km/h 83 % 0 in /  0.0 mm
10:05 66.2 °F /  19.0 °C 60.4 °F /  15.8 °C 30.4 in /  1028.0 hPa NE 2.6 mph /  4.2 km/h 2.6 mph /  4.2 km/h 82 % 0 in /  0.0 mm
10:10 66.4 °F /  19.1 °C 60.4 °F /  15.8 °C 30.4 in /  1028.0 hPa NNE 4.6 mph /  7.4 km/h 4.6 mph /  7.4 km/h 81 % 0 in /  0.0 mm
10:15 66.2 °F /  19.0 °C 59.7 °F /  15.4 °C 30.4 in /  1029.0 hPa NNE 3.5 mph /  5.6 km/h 3.5 mph /  5.6 km/h 80 % 0 in /  0.0 mm
10:20 66.4 °F /  19.1 °C 60.1 °F /  15.6 °C 30.4 in /  1029.0 hPa ENE 6.9 mph /  11.1 km/h 6.9 mph /  11.1 km/h 80 % 0 in /  0.0 mm
10:25 66.7 °F /  19.3 °C 60.1 °F /  15.6 °C 30.4 in /  1029.0 hPa NE 4.3 mph /  6.9 km/h 4.3 mph /  6.9 km/h 79 % 0 in /  0.0 mm
10:30 67.1 °F /  19.5 °C 60.4 °F /  15.8 °C 30.4 in /  1029.0 hPa ENE 4.6 mph /  7.4 km/h 4.6 mph /  7.4 km/h 79 % 0 in /  0.0 mm
10:33 67.3 °F /  19.6 °C 60.3 °F /  15.7 °C 30.4 in /  1029.0 hPa NE 5.8 mph /  9.3 km/h 5.8 mph /  9.3 km/h 78 % 0 in /  0.0 mm
10:38 67.3 °F /  19.6 °C 60.3 °F /  15.7 °C 30.4 in /  1029.0 hPa NE 3.5 mph /  5.6 km/h 3.5 mph /  5.6 km/h 78 % 0 in /  0.0 mm
10:43 67.8 °F /  19.9 °C 60.3 °F /  15.7 °C 30.4 in /  1028.0 hPa NE 3.8 mph /  6.1 km/h 3.8 mph /  6.1 km/h 77 % 0 in /  0.0 mm
10:48 68 °F /  20.0 °C 60.3 °F /  15.7 °C 30.4 in /  1028.0 hPa ENE 4.6 mph /  7.4 km/h 4.6 mph /  7.4 km/h 76 % 0 in /  0.0 mm
10:53 68.7 °F /  20.4 °C 61.2 °F /  16.2 °C 30.4 in /  1028.0 hPa ENE 4.6 mph /  7.4 km/h 4.6 mph /  7.4 km/h 77 % 0 in /  0.0 mm
10:58 68.9 °F /  20.5 °C 61 °F /  16.1 °C 30.4 in /  1029.0 hPa NE 4.6 mph /  7.4 km/h 4.6 mph /  7.4 km/h 76 % 0 in /  0.0 mm
11:03 68.7 °F /  20.4 °C 60.4 °F /  15.8 °C 30.4 in /  1029.0 hPa ENE 3.6 mph /  5.8 km/h 3.6 mph /  5.8 km/h 75 % 0 in /  0.0 mm
11:08 67.8 °F /  19.9 °C 60.1 °F /  15.6 °C 30.4 in /  1029.0 hPa NE 3.5 mph /  5.6 km/h 3.5 mph /  5.6 km/h 76 % 0 in /  0.0 mm
11:13 68 °F /  20.0 °C 60.3 °F /  15.7 °C 30.4 in /  1029.0 hPa ENE 3.5 mph /  5.6 km/h 3.5 mph /  5.6 km/h 76 % 0 in /  0.0 mm
11:18 67.8 °F /  19.9 °C 60.1 °F /  15.6 °C 30.4 in /  1029.0 hPa NNE 2.4 mph /  3.9 km/h 2.4 mph /  3.9 km/h 76 % 0 in /  0.0 mm
11:23 67.8 °F /  19.9 °C 60.1 °F /  15.6 °C 30.4 in /  1029.0 hPa NE 2.3 mph /  3.7 km/h 2.3 mph /  3.7 km/h 76 % 0 in /  0.0 mm
11:28 68 °F /  20.0 °C 59.7 °F /  15.4 °C 30.4 in /  1029.0 hPa NNE 2.3 mph /  3.7 km/h 2.3 mph /  3.7 km/h 75 % 0 in /  0.0 mm
11:33 67.6 °F /  19.8 °C 59.7 °F /  15.4 °C 30.4 in /  1029.0 hPa NNE 3.5 mph /  5.6 km/h 3.5 mph /  5.6 km/h 76 % 0 in /  0.0 mm
11:38 67.6 °F /  19.8 °C 59.7 °F /  15.4 °C 30.4 in /  1029.0 hPa ENE 2.3 mph /  3.7 km/h 2.3 mph /  3.7 km/h 76 % 0 in /  0.0 mm
11:43 67.6 °F /  19.8 °C 59.7 °F /  15.4 °C 30.4 in /  1029.0 hPa ENE 2.4 mph /  3.9 km/h 2.4 mph /  3.9 km/h 76 % 0 in /  0.0 mm
11:48 67.6 °F /  19.8 °C 59.7 °F /  15.4 °C 30.4 in /  1029.0 hPa NE 2.3 mph /  3.7 km/h 2.3 mph /  3.7 km/h 76 % 0 in /  0.0 mm
11:53 67.6 °F /  19.8 °C 59.7 °F /  15.4 °C 30.4 in /  1029.0 hPa NNE 2.3 mph /  3.7 km/h 2.3 mph /  3.7 km/h 76 % 0 in /  0.0 mm
11:58 67.8 °F /  19.9 °C 60.1 °F /  15.6 °C 30.4 in /  1029.0 hPa NE 2.3 mph /  3.7 km/h 2.3 mph /  3.7 km/h 76 % 0 in /  0.0 mm
12:03 68 °F /  20.0 °C 59.7 °F /  15.4 °C 30.4 in /  1029.0 hPa NNE 1.2 mph /  1.9 km/h 1.2 mph /  1.9 km/h 75 % 0 in /  0.0 mm
12:08 68 °F /  20.0 °C 59.7 °F /  15.4 °C 30.4 in /  1029.0 hPa North 2.3 mph /  3.7 km/h 2.3 mph /  3.7 km/h 75 % 0 in /  0.0 mm
12:13 67.8 °F /  19.9 °C 59.5 °F /  15.3 °C 30.4 in /  1028.0 hPa NE 2.3 mph /  3.7 km/h 2.3 mph /  3.7 km/h 75 % 0 in /  0.0 mm
12:18 68 °F /  20.0 °C 59.7 °F /  15.4 °C 30.4 in /  1028.0 hPa NNE 1.2 mph /  1.9 km/h 1.2 mph /  1.9 km/h 75 % 0 in /  0.0 mm
12:23 68 °F /  20.0 °C 59.4 °F /  15.2 °C 30.4 in /  1028.0 hPa Calm     74 % 0 in /  0.0 mm
12:28 68 °F /  20.0 °C 59.4 °F /  15.2 °C 30.4 in /  1028.0 hPa NE 1.2 mph /  1.9 km/h 1.2 mph /  1.9 km/h 74 % 0 in /  0.0 mm
12:33 68 °F /  20.0 °C 59.4 °F /  15.2 °C 30.4 in /  1028.0 hPa NE 2.6 mph /  4.2 km/h 2.6 mph /  4.2 km/h 74 % 0 in /  0.0 mm
12:38 67.8 °F /  19.9 °C 59.5 °F /  15.3 °C 30.4 in /  1028.0 hPa ENE 3.5 mph /  5.6 km/h 3.5 mph /  5.6 km/h 75 % 0 in /  0.0 mm
12:43 68 °F /  20.0 °C 59.4 °F /  15.2 °C 30.4 in /  1028.0 hPa ENE 2.3 mph /  3.7 km/h 2.3 mph /  3.7 km/h 74 % 0 in /  0.0 mm
12:48 69.3 °F /  20.7 °C 60.6 °F /  15.9 °C 30.4 in /  1028.0 hPa East 2.3 mph /  3.7 km/h 2.3 mph /  3.7 km/h 74 % 0 in /  0.0 mm
12:53 70 °F /  21.1 °C 61 °F /  16.1 °C 30.4 in /  1028.0 hPa NNE 2.3 mph /  3.7 km/h 2.3 mph /  3.7 km/h 73 % 0 in /  0.0 mm
12:58 70.9 °F /  21.6 °C 61.9 °F /  16.6 °C 30.4 in /  1028.0 hPa ENE 2.3 mph /  3.7 km/h 2.3 mph /  3.7 km/h 73 % 0 in /  0.0 mm
13:03 71.6 °F /  22.0 °C 61.7 °F /  16.5 °C 30.4 in /  1028.0 hPa NE 4.6 mph /  7.4 km/h 4.6 mph /  7.4 km/h 71 % 0 in /  0.0 mm
13:08 72 °F /  22.2 °C 62.1 °F /  16.7 °C 30.4 in /  1028.0 hPa NW 3.5 mph /  5.6 km/h 3.5 mph /  5.6 km/h 71 % 0 in /  0.0 mm
13:13 72.5 °F /  22.5 °C 62.6 °F /  17.0 °C 30.4 in /  1028.0 hPa NNE 3.5 mph /  5.6 km/h 3.5 mph /  5.6 km/h 71 % 0 in /  0.0 mm
13:18 72.3 °F /  22.4 °C 62.1 °F /  16.7 °C 30.4 in /  1028.0 hPa ENE 3.5 mph /  5.6 km/h 3.5 mph /  5.6 km/h 70 % 0 in /  0.0 mm
13:23 72.5 °F /  22.5 °C 62.2 °F /  16.8 °C 30.4 in /  1028.0 hPa SSE 2.3 mph /  3.7 km/h 2.3 mph /  3.7 km/h 70 % 0 in /  0.0 mm
13:28 73 °F /  22.8 °C 62.8 °F /  17.1 °C 30.4 in /  1028.0 hPa WSW 2.4 mph /  3.9 km/h 2.4 mph /  3.9 km/h 70 % 0 in /  0.0 mm
13:33 73.6 °F /  23.1 °C 63.1 °F /  17.3 °C 30.4 in /  1028.0 hPa NNW 2.6 mph /  4.2 km/h 2.6 mph /  4.2 km/h 70 % 0 in /  0.0 mm
13:38 74.7 °F /  23.7 °C 63.9 °F /  17.7 °C 30.4 in /  1028.0 hPa SW 4.6 mph /  7.4 km/h 4.6 mph /  7.4 km/h 69 % 0 in /  0.0 mm
13:43 75.6 °F /  24.2 °C 64.2 °F /  17.9 °C 30.4 in /  1028.0 hPa WSW 6.9 mph /  11.1 km/h 6.9 mph /  11.1 km/h 68 % 0 in /  0.0 mm
13:48 74.7 °F /  23.7 °C 62.4 °F /  16.9 °C 30.4 in /  1028.0 hPa ESE 2.3 mph /  3.7 km/h 2.3 mph /  3.7 km/h 66 % 0 in /  0.0 mm
13:53 74.8 °F /  23.8 °C 63.1 °F /  17.3 °C 30.4 in /  1028.0 hPa SSW 2.3 mph /  3.7 km/h 2.3 mph /  3.7 km/h 67 % 0 in /  0.0 mm
13:58 75.9 °F /  24.4 °C 63.3 °F /  17.4 °C 30.4 in /  1028.0 hPa SSE 3.5 mph /  5.6 km/h 3.5 mph /  5.6 km/h 65 % 0 in /  0.0 mm
14:03 76.1 °F /  24.5 °C 63.5 °F /  17.5 °C 30.4 in /  1028.0 hPa SW 3.5 mph /  5.6 km/h 3.5 mph /  5.6 km/h 65 % 0 in /  0.0 mm
14:08 76.8 °F /  24.9 °C 63.7 °F /  17.6 °C 30.4 in /  1028.0 hPa West 2.9 mph /  4.7 km/h 2.9 mph /  4.7 km/h 64 % 0 in /  0.0 mm
14:13 76.5 °F /  24.7 °C 62.4 °F /  16.9 °C 30.3 in /  1027.0 hPa West 2.6 mph /  4.2 km/h 2.6 mph /  4.2 km/h 62 % 0 in /  0.0 mm
14:18 76.1 °F /  24.5 °C 62.6 °F /  17.0 °C 30.3 in /  1027.0 hPa SSW 4.6 mph /  7.4 km/h 4.6 mph /  7.4 km/h 63 % 0 in /  0.0 mm
14:23 75.6 °F /  24.2 °C 61.2 °F /  16.2 °C 30.3 in /  1027.0 hPa SSE 4.6 mph /  7.4 km/h 4.6 mph /  7.4 km/h 61 % 0 in /  0.0 mm
14:28 76.1 °F /  24.5 °C 61.7 °F /  16.5 °C 30.3 in /  1027.0 hPa SSW 5.8 mph /  9.3 km/h 5.8 mph /  9.3 km/h 61 % 0 in /  0.0 mm
14:33 77 °F /  25.0 °C 61.2 °F /  16.2 °C 30.3 in /  1027.0 hPa SW 5.8 mph /  9.3 km/h 5.8 mph /  9.3 km/h 58 % 0 in /  0.0 mm
14:38 77.7 °F /  25.4 °C 61.9 °F /  16.6 °C 30.3 in /  1027.0 hPa SW 4 mph /  6.4 km/h 4 mph /  6.4 km/h 58 % 0 in /  0.0 mm
14:39 77.9 °F /  25.5 °C 62.4 °F /  16.9 °C 30.3 in /  1027.0 hPa SSW 4.6 mph /  7.4 km/h 4.6 mph /  7.4 km/h 59 % 0 in /  0.0 mm
14:44 77 °F /  25.0 °C 61.2 °F /  16.2 °C 30.3 in /  1026.0 hPa SSW 4.6 mph /  7.4 km/h 4.6 mph /  7.4 km/h 58 % 0 in /  0.0 mm
14:49 76.8 °F /  24.9 °C 61.3 °F /  16.3 °C 30.3 in /  1026.0 hPa South 3.5 mph /  5.6 km/h 3.5 mph /  5.6 km/h 59 % 0 in /  0.0 mm
14:54 77 °F /  25.0 °C 60.1 °F /  15.6 °C 30.3 in /  1026.0 hPa ESE 2.4 mph /  3.9 km/h 2.4 mph /  3.9 km/h 56 % 0 in /  0.0 mm
14:59 76.8 °F /  24.9 °C 60.4 °F /  15.8 °C 30.3 in /  1026.0 hPa SW 2.3 mph /  3.7 km/h 2.3 mph /  3.7 km/h 57 % 0 in /  0.0 mm
15:04 77 °F /  25.0 °C 59.5 °F /  15.3 °C 30.3 in /  1026.0 hPa SE 4.6 mph /  7.4 km/h 4.6 mph /  7.4 km/h 55 % 0 in /  0.0 mm
15:09 77.9 °F /  25.5 °C 61 °F /  16.1 °C 30.3 in /  1026.0 hPa West 3.5 mph /  5.6 km/h 3.5 mph /  5.6 km/h 56 % 0 in /  0.0 mm
15:14 77.4 °F /  25.2 °C 59.4 °F /  15.2 °C 30.3 in /  1026.0 hPa ESE 5.8 mph /  9.3 km/h 5.8 mph /  9.3 km/h 54 % 0 in /  0.0 mm
15:19 77.9 °F /  25.5 °C 61 °F /  16.1 °C 30.3 in /  1026.0 hPa North 4.6 mph /  7.4 km/h 4.6 mph /  7.4 km/h 56 % 0 in /  0.0 mm
15:24 77.7 °F /  25.4 °C 59.7 °F /  15.4 °C 30.3 in /  1026.0 hPa ENE 5.8 mph /  9.3 km/h 5.8 mph /  9.3 km/h 54 % 0 in /  0.0 mm
15:29 77 °F /  25.0 °C 59.2 °F /  15.1 °C 30.3 in /  1026.0 hPa SSE 4.6 mph /  7.4 km/h 4.6 mph /  7.4 km/h 54 % 0 in /  0.0 mm
15:30 77.2 °F /  25.1 °C 59.2 °F /  15.1 °C 30.3 in /  1026.0 hPa SSE 5.8 mph /  9.3 km/h 5.8 mph /  9.3 km/h 54 % 0 in /  0.0 mm
15:35 77.9 °F /  25.5 °C 60.4 °F /  15.8 °C 30.3 in /  1026.0 hPa SW 1.4 mph /  2.3 km/h 1.4 mph /  2.3 km/h 55 % 0 in /  0.0 mm
15:40 77.7 °F /  25.4 °C 59.2 °F /  15.1 °C 30.3 in /  1026.0 hPa WSW 4.6 mph /  7.4 km/h 4.6 mph /  7.4 km/h 53 % 0 in /  0.0 mm
15:45 79 °F /  26.1 °C 61 °F /  16.1 °C 30.3 in /  1026.0 hPa ESE 2.3 mph /  3.7 km/h 2.3 mph /  3.7 km/h 54 % 0 in /  0.0 mm
15:50 78.4 °F /  25.8 °C 59.4 °F /  15.2 °C 30.3 in /  1026.0 hPa ESE 4 mph /  6.4 km/h 4 mph /  6.4 km/h 52 % 0 in /  0.0 mm
15:55 78.8 °F /  26.0 °C 60.3 °F /  15.7 °C 30.3 in /  1026.0 hPa NE 4.6 mph /  7.4 km/h 4.6 mph /  7.4 km/h 53 % 0 in /  0.0 mm
16:00 77.7 °F /  25.4 °C 59.7 °F /  15.4 °C 30.3 in /  1026.0 hPa SSE 5.8 mph /  9.3 km/h 5.8 mph /  9.3 km/h 54 % 0 in /  0.0 mm
16:05 77.2 °F /  25.1 °C 60.3 °F /  15.7 °C 30.3 in /  1026.0 hPa ENE 3.8 mph /  6.1 km/h 4 mph /  6.4 km/h 56 % 0 in /  0.0 mm
16:10 77.7 °F /  25.4 °C 60.8 °F /  16.0 °C 30.3 in /  1026.0 hPa WSW 5.8 mph /  9.3 km/h 5.8 mph /  9.3 km/h 56 % 0 in /  0.0 mm
16:15 78.8 °F /  26.0 °C 60.6 °F /  15.9 °C 30.3 in /  1026.0 hPa ESE 4.6 mph /  7.4 km/h 4.6 mph /  7.4 km/h 54 % 0 in /  0.0 mm
16:20 79.2 °F /  26.2 °C 60.6 °F /  15.9 °C 30.3 in /  1026.0 hPa East 2.3 mph /  3.7 km/h 2.3 mph /  3.7 km/h 53 % 0 in /  0.0 mm
16:25 78.4 °F /  25.8 °C 61 °F /  16.1 °C 30.3 in /  1026.0 hPa SSW 2.3 mph /  3.7 km/h 2.3 mph /  3.7 km/h 55 % 0 in /  0.0 mm
16:30 78.3 °F /  25.7 °C 61.9 °F /  16.6 °C 30.3 in /  1026.0 hPa West 5.4 mph /  8.7 km/h 5.4 mph /  8.7 km/h 57 % 0 in /  0.0 mm
16:35 78.8 °F /  26.0 °C 60.3 °F /  15.7 °C 30.3 in /  1026.0 hPa SE 4 mph /  6.4 km/h 4 mph /  6.4 km/h 53 % 0 in /  0.0 mm
16:40 77.7 °F /  25.4 °C 59.2 °F /  15.1 °C 30.3 in /  1026.0 hPa SW 3.6 mph /  5.8 km/h 3.6 mph /  5.8 km/h 53 % 0 in /  0.0 mm
16:45 78.3 °F /  25.7 °C 60.3 °F /  15.7 °C 30.3 in /  1026.0 hPa WSW 5.8 mph /  9.3 km/h 5.8 mph /  9.3 km/h 54 % 0 in /  0.0 mm
16:50 78.4 °F /  25.8 °C 59.9 °F /  15.5 °C 30.3 in /  1026.0 hPa ESE 2.4 mph /  3.9 km/h 2.4 mph /  3.9 km/h 53 % 0 in /  0.0 mm
16:55 78.1 °F /  25.6 °C 60.1 °F /  15.6 °C 30.3 in /  1026.0 hPa West 4.6 mph /  7.4 km/h 4.6 mph /  7.4 km/h 54 % 0 in /  0.0 mm
17:00 78.6 °F /  25.9 °C 60.1 °F /  15.6 °C 30.3 in /  1026.0 hPa SW 3.5 mph /  5.6 km/h 3.5 mph /  5.6 km/h 53 % 0 in /  0.0 mm
17:05 79 °F /  26.1 °C 60.4 °F /  15.8 °C 30.3 in /  1026.0 hPa ESE 4.6 mph /  7.4 km/h 4.6 mph /  7.4 km/h 53 % 0 in /  0.0 mm
17:10 79.5 °F /  26.4 °C 61 °F /  16.1 °C 30.3 in /  1026.0 hPa SW 2.4 mph /  3.9 km/h 2.4 mph /  3.9 km/h 53 % 0 in /  0.0 mm
17:15 79.5 °F /  26.4 °C 61 °F /  16.1 °C 30.3 in /  1026.0 hPa SW 4.6 mph /  7.4 km/h 4.6 mph /  7.4 km/h 53 % 0 in /  0.0 mm
17:20 79.3 °F /  26.3 °C 60.6 °F /  15.9 °C 30.3 in /  1026.0 hPa SSW 3.5 mph /  5.6 km/h 3.5 mph /  5.6 km/h 53 % 0 in /  0.0 mm
17:25 78.1 °F /  25.6 °C 59 °F /  15.0 °C 30.3 in /  1026.0 hPa SSW 6.9 mph /  11.1 km/h 6.9 mph /  11.1 km/h 52 % 0 in /  0.0 mm
17:30 78.1 °F /  25.6 °C 59 °F /  15.0 °C 30.3 in /  1026.0 hPa SW 4.6 mph /  7.4 km/h 4.6 mph /  7.4 km/h 52 % 0 in /  0.0 mm
17:35 77.5 °F /  25.3 °C 59.2 °F /  15.1 °C 30.3 in /  1026.0 hPa WSW 4.6 mph /  7.4 km/h 4.6 mph /  7.4 km/h 53 % 0 in /  0.0 mm
17:40 77.2 °F /  25.1 °C 58.6 °F /  14.8 °C 30.3 in /  1026.0 hPa SSW 8.1 mph /  13.0 km/h 8.1 mph /  13.0 km/h 53 % 0 in /  0.0 mm
17:45 76.8 °F /  24.9 °C 58.8 °F /  14.9 °C 30.3 in /  1026.0 hPa WSW 5.8 mph /  9.3 km/h 5.8 mph /  9.3 km/h 54 % 0 in /  0.0 mm
17:46 76.8 °F /  24.9 °C 58.8 °F /  14.9 °C 30.3 in /  1026.0 hPa WSW 5.8 mph /  9.3 km/h 5.8 mph /  9.3 km/h 54 % 0 in /  0.0 mm
17:51 77 °F /  25.0 °C 58.6 °F /  14.8 °C 30.3 in /  1026.0 hPa SW 3.5 mph /  5.6 km/h 3.5 mph /  5.6 km/h 53 % 0 in /  0.0 mm
17:56 76.8 °F /  24.9 °C 58.8 °F /  14.9 °C 30.3 in /  1026.0 hPa SSW 5.8 mph /  9.3 km/h 5.8 mph /  9.3 km/h 54 % 0 in /  0.0 mm
18:01 76.6 °F /  24.8 °C 58.6 °F /  14.8 °C 30.3 in /  1026.0 hPa WSW 4.7 mph /  7.6 km/h 4.7 mph /  7.6 km/h 54 % 0 in /  0.0 mm
18:06 76.1 °F /  24.5 °C 58.8 °F /  14.9 °C 30.3 in /  1026.0 hPa SSW 4.6 mph /  7.4 km/h 4.6 mph /  7.4 km/h 55 % 0 in /  0.0 mm
18:11 75.9 °F /  24.4 °C 58.6 °F /  14.8 °C 30.3 in /  1026.0 hPa SW 8.1 mph /  13.0 km/h 8.1 mph /  13.0 km/h 55 % 0 in /  0.0 mm
18:16 75.4 °F /  24.1 °C 58.1 °F /  14.5 °C 30.3 in /  1026.0 hPa SSW 8.1 mph /  13.0 km/h 8.1 mph /  13.0 km/h 55 % 0 in /  0.0 mm
18:21 74.8 °F /  23.8 °C 58.6 °F /  14.8 °C 30.3 in /  1026.0 hPa SW 5.8 mph /  9.3 km/h 5.8 mph /  9.3 km/h 57 % 0 in /  0.0 mm
18:26 74.7 °F /  23.7 °C 58.5 °F /  14.7 °C 30.3 in /  1026.0 hPa SSW 3.5 mph /  5.6 km/h 3.5 mph /  5.6 km/h 57 % 0 in /  0.0 mm
18:31 74.5 °F /  23.6 °C 58.3 °F /  14.6 °C 30.3 in /  1026.0 hPa SSW 4.6 mph /  7.4 km/h 4.6 mph /  7.4 km/h 57 % 0 in /  0.0 mm
18:36 74.1 °F /  23.4 °C 58.5 °F /  14.7 °C 30.3 in /  1026.0 hPa SW 9.2 mph /  14.8 km/h 9.2 mph /  14.8 km/h 58 % 0 in /  0.0 mm
18:41 73.6 °F /  23.1 °C 58.5 °F /  14.7 °C 30.3 in /  1026.0 hPa West 3.5 mph /  5.6 km/h 3.6 mph /  5.8 km/h 59 % 0 in /  0.0 mm
18:46 73 °F /  22.8 °C 57.9 °F /  14.4 °C 30.3 in /  1026.0 hPa WSW 8.1 mph /  13.0 km/h 8.1 mph /  13.0 km/h 59 % 0 in /  0.0 mm
18:51 72.7 °F /  22.6 °C 57.9 °F /  14.4 °C 30.3 in /  1026.0 hPa SSW 5.8 mph /  9.3 km/h 5.8 mph /  9.3 km/h 60 % 0 in /  0.0 mm
18:56 72.1 °F /  22.3 °C 57.9 °F /  14.4 °C 30.3 in /  1026.0 hPa SW 5.8 mph /  9.3 km/h 5.8 mph /  9.3 km/h 61 % 0 in /  0.0 mm
19:01 71.6 °F /  22.0 °C 57.9 °F /  14.4 °C 30.3 in /  1026.0 hPa SW 3.5 mph /  5.6 km/h 3.5 mph /  5.6 km/h 62 % 0 in /  0.0 mm
19:06 71.4 °F /  21.9 °C 58.3 °F /  14.6 °C 30.3 in /  1026.0 hPa SW 4.6 mph /  7.4 km/h 4.6 mph /  7.4 km/h 63 % 0 in /  0.0 mm
19:09 71.2 °F /  21.8 °C 57.9 °F /  14.4 °C 30.3 in /  1026.0 hPa SW 3.5 mph /  5.6 km/h 3.5 mph /  5.6 km/h 63 % 0 in /  0.0 mm
19:14 70.9 °F /  21.6 °C 58.1 °F /  14.5 °C 30.3 in /  1026.0 hPa SW 4.6 mph /  7.4 km/h 4.6 mph /  7.4 km/h 64 % 0 in /  0.0 mm
19:19 70.5 °F /  21.4 °C 57.7 °F /  14.3 °C 30.3 in /  1026.0 hPa WSW 3.5 mph /  5.6 km/h 3.5 mph /  5.6 km/h 64 % 0 in /  0.0 mm
19:24 70.2 °F /  21.2 °C 57.7 °F /  14.3 °C 30.3 in /  1026.0 hPa South 5.8 mph /  9.3 km/h 5.8 mph /  9.3 km/h 65 % 0 in /  0.0 mm
19:29 70 °F /  21.1 °C 57.7 °F /  14.3 °C 30.3 in /  1026.0 hPa SW 4.6 mph /  7.4 km/h 4.6 mph /  7.4 km/h 65 % 0 in /  0.0 mm
19:34 69.6 °F /  20.9 °C 57.7 °F /  14.3 °C 30.3 in /  1026.0 hPa SW 4.6 mph /  7.4 km/h 4.6 mph /  7.4 km/h 66 % 0 in /  0.0 mm
19:39 69.4 °F /  20.8 °C 57.6 °F /  14.2 °C 30.3 in /  1026.0 hPa West 4.6 mph /  7.4 km/h 4.6 mph /  7.4 km/h 66 % 0 in /  0.0 mm
19:44 69.3 °F /  20.7 °C 57.7 °F /  14.3 °C 30.3 in /  1026.0 hPa SW 5.8 mph /  9.3 km/h 5.8 mph /  9.3 km/h 67 % 0 in /  0.0 mm
19:49 69.1 °F /  20.6 °C 57.7 °F /  14.3 °C 30.3 in /  1026.0 hPa SSW 6.9 mph /  11.1 km/h 6.9 mph /  11.1 km/h 67 % 0 in /  0.0 mm
19:54 68.9 °F /  20.5 °C 57.9 °F /  14.4 °C 30.3 in /  1026.0 hPa SW 3.5 mph /  5.6 km/h 3.5 mph /  5.6 km/h 68 % 0 in /  0.0 mm
19:59 68.7 °F /  20.4 °C 58.1 °F /  14.5 °C 30.3 in /  1027.0 hPa WSW 3.5 mph /  5.6 km/h 3.5 mph /  5.6 km/h 69 % 0 in /  0.0 mm
20:04 68.5 °F /  20.3 °C 57.9 °F /  14.4 °C 30.3 in /  1027.0 hPa WSW 3.5 mph /  5.6 km/h 3.5 mph /  5.6 km/h 69 % 0 in /  0.0 mm
20:09 68.4 °F /  20.2 °C 58.3 °F /  14.6 °C 30.3 in /  1027.0 hPa SW 3.5 mph /  5.6 km/h 3.5 mph /  5.6 km/h 70 % 0 in /  0.0 mm
20:14 68.2 °F /  20.1 °C 57.9 °F /  14.4 °C 30.3 in /  1027.0 hPa West 2.3 mph /  3.7 km/h 2.3 mph /  3.7 km/h 70 % 0 in /  0.0 mm
20:19 68.2 °F /  20.1 °C 57.9 °F /  14.4 °C 30.3 in /  1027.0 hPa SW 4.6 mph /  7.4 km/h 4.6 mph /  7.4 km/h 70 % 0 in /  0.0 mm
20:24 68 °F /  20.0 °C 58.3 °F /  14.6 °C 30.3 in /  1027.0 hPa SW 2.6 mph /  4.2 km/h 2.6 mph /  4.2 km/h 71 % 0 in /  0.0 mm
20:29 67.8 °F /  19.9 °C 58.5 °F /  14.7 °C 30.3 in /  1026.0 hPa SW 3.1 mph /  5.0 km/h 3.1 mph /  5.0 km/h 72 % 0 in /  0.0 mm
20:34 67.6 °F /  19.8 °C 58.6 °F /  14.8 °C 30.3 in /  1026.0 hPa SW 2.3 mph /  3.7 km/h 2.3 mph /  3.7 km/h 73 % 0 in /  0.0 mm
20:39 67.5 °F /  19.7 °C 58.5 °F /  14.7 °C 30.3 in /  1026.0 hPa WSW 2.3 mph /  3.7 km/h 2.3 mph /  3.7 km/h 73 % 0 in /  0.0 mm
20:44 67.3 °F /  19.6 °C 58.3 °F /  14.6 °C 30.3 in /  1027.0 hPa WSW 2.3 mph /  3.7 km/h 2.3 mph /  3.7 km/h 73 % 0 in /  0.0 mm
20:49 67.1 °F /  19.5 °C 58.5 °F /  14.7 °C 30.3 in /  1027.0 hPa SW 1.6 mph /  2.6 km/h 1.6 mph /  2.6 km/h 74 % 0 in /  0.0 mm
20:54 66.9 °F /  19.4 °C 58.5 °F /  14.7 °C 30.3 in /  1027.0 hPa WSW 1.2 mph /  1.9 km/h   74 % 0 in /  0.0 mm
20:59 66.7 °F /  19.3 °C 58.6 °F /  14.8 °C 30.3 in /  1027.0 hPa Calm     75 % 0 in /  0.0 mm
21:04 66.7 °F /  19.3 °C 58.6 °F /  14.8 °C 30.3 in /  1027.0 hPa West 2.3 mph /  3.7 km/h 2.3 mph /  3.7 km/h 75 % 0 in /  0.0 mm
21:09 66.7 °F /  19.3 °C 58.6 °F /  14.8 °C 30.3 in /  1027.0 hPa West 2.3 mph /  3.7 km/h   75 % 0 in /  0.0 mm
21:14 66.6 °F /  19.2 °C 58.5 °F /  14.7 °C 30.3 in /  1027.0 hPa Calm     75 % 0 in /  0.0 mm
21:19 66.6 °F /  19.2 °C 58.8 °F /  14.9 °C 30.3 in /  1027.0 hPa Calm     76 % 0 in /  0.0 mm
21:24 66.2 °F /  19.0 °C 58.5 °F /  14.7 °C 30.3 in /  1027.0 hPa Calm     76 % 0 in /  0.0 mm
21:29 66.2 °F /  19.0 °C 58.5 °F /  14.7 °C 30.3 in /  1027.0 hPa Calm     76 % 0 in /  0.0 mm
21:34 66.2 °F /  19.0 °C 58.8 °F /  14.9 °C 30.3 in /  1027.0 hPa Calm     77 % 0 in /  0.0 mm
21:35 66.2 °F /  19.0 °C 58.8 °F /  14.9 °C 30.3 in /  1027.0 hPa Calm     77 % 0 in /  0.0 mm
21:40 66 °F /  18.9 °C 59 °F /  15.0 °C 30.3 in /  1027.0 hPa Calm     78 % 0 in /  0.0 mm
21:45 65.8 °F /  18.8 °C 58.8 °F /  14.9 °C 30.3 in /  1027.0 hPa Calm     78 % 0 in /  0.0 mm
21:50 65.8 °F /  18.8 °C 58.8 °F /  14.9 °C 30.3 in /  1027.0 hPa Calm     78 % 0 in /  0.0 mm
21:55 65.8 °F /  18.8 °C 58.8 °F /  14.9 °C 30.3 in /  1027.0 hPa Calm     78 % 0 in /  0.0 mm
22:00 65.7 °F /  18.7 °C 59 °F /  15.0 °C 30.3 in /  1027.0 hPa Calm     79 % 0 in /  0.0 mm
22:05 65.5 °F /  18.6 °C 58.8 °F /  14.9 °C 30.3 in /  1027.0 hPa Calm     79 % 0 in /  0.0 mm
22:10 65.5 °F /  18.6 °C 58.8 °F /  14.9 °C 30.3 in /  1027.0 hPa Calm     79 % 0 in /  0.0 mm
22:15 65.5 °F /  18.6 °C 58.8 °F /  14.9 °C 30.3 in /  1027.0 hPa Calm     79 % 0 in /  0.0 mm
22:20 65.3 °F /  18.5 °C 58.6 °F /  14.8 °C 30.3 in /  1027.0 hPa Calm     79 % 0 in /  0.0 mm
22:25 65.3 °F /  18.5 °C 58.6 °F /  14.8 °C 30.3 in /  1027.0 hPa Calm     79 % 0 in /  0.0 mm
22:30 65.3 °F /  18.5 °C 58.6 °F /  14.8 °C 30.3 in /  1027.0 hPa Calm     79 % 0 in /  0.0 mm
22:35 65.1 °F /  18.4 °C 58.8 °F /  14.9 °C 30.3 in /  1027.0 hPa Calm     80 % 0 in /  0.0 mm
22:40 65.1 °F /  18.4 °C 58.5 °F /  14.7 °C 30.3 in /  1027.0 hPa Calm     79 % 0 in /  0.0 mm
22:45 64.9 °F /  18.3 °C 58.6 °F /  14.8 °C 30.3 in /  1027.0 hPa Calm     80 % 0 in /  0.0 mm
22:50 64.9 °F /  18.3 °C 58.6 °F /  14.8 °C 30.3 in /  1027.0 hPa Calm     80 % 0 in /  0.0 mm
22:55 64.9 °F /  18.3 °C 58.6 °F /  14.8 °C 30.3 in /  1027.0 hPa Calm     80 % 0 in /  0.0 mm
23:00 64.9 °F /  18.3 °C 58.6 °F /  14.8 °C 30.4 in /  1028.0 hPa Calm     80 % 0 in /  0.0 mm
23:05 65.1 °F /  18.4 °C 59.2 °F /  15.1 °C 30.4 in /  1028.0 hPa Calm     81 % 0 in /  0.0 mm
23:10 64.9 °F /  18.3 °C 59 °F /  15.0 °C 30.4 in /  1028.0 hPa Calm     81 % 0 in /  0.0 mm
23:15 64.9 °F /  18.3 °C 59 °F /  15.0 °C 30.3 in /  1027.0 hPa SSW 1.4 mph /  2.3 km/h   81 % 0 in /  0.0 mm
23:20 64.9 °F /  18.3 °C 59 °F /  15.0 °C 30.3 in /  1027.0 hPa Calm     81 % 0 in /  0.0 mm
23:25 64.9 °F /  18.3 °C 59.4 °F /  15.2 °C 30.3 in /  1027.0 hPa Calm     82 % 0 in /  0.0 mm
23:30 64.8 °F /  18.2 °C 58.8 °F /  14.9 °C 30.3 in /  1027.0 hPa Calm     81 % 0 in /  0.0 mm
23:35 64.8 °F /  18.2 °C 58.8 °F /  14.9 °C 30.3 in /  1027.0 hPa Calm     81 % 0 in /  0.0 mm
23:40 64.6 °F /  18.1 °C 59 °F /  15.0 °C 30.3 in /  1027.0 hPa Calm     82 % 0 in /  0.0 mm
23:45 64.6 °F /  18.1 °C 59 °F /  15.0 °C 30.4 in /  1028.0 hPa Calm     82 % 0 in /  0.0 mm
23:50 64.6 °F /  18.1 °C 59 °F /  15.0 °C 30.4 in /  1028.0 hPa Calm     82 % 0 in /  0.0 mm
23:55 64.6 °F /  18.1 °C 59 °F /  15.0 °C 30.4 in /  1028.0 hPa Calm     82 % 0 in /  0.0 mm
Meteo Sesrovires
Elogis d' Weather Underground - 4 mb

Guio original per  Jim McMurry - jmcmurry@mwt.net Adaptat per a la plantilla per  Wim van der Kuil - Leuven-Template.eu

Trobareu la nostra informacio del temps tambe a:

Weather Underground

AWEKAS